sensor_id;sensor_type;location;lat;lon;timestamp;P1;durP1;ratioP1;P2;durP2;ratioP2
35128;SDS011;21301;43.626;10.580;2023-02-01T00:01:53;17.42;;;10.18;;
35128;SDS011;21301;43.626;10.580;2023-02-01T00:04:19;29.05;;;14.32;;
35128;SDS011;21301;43.626;10.580;2023-02-01T00:06:45;32.30;;;13.90;;
35128;SDS011;21301;43.626;10.580;2023-02-01T00:09:11;21.25;;;12.30;;
35128;SDS011;21301;43.626;10.580;2023-02-01T00:11:37;29.42;;;12.60;;
35128;SDS011;21301;43.626;10.580;2023-02-01T00:14:03;25.65;;;14.18;;
35128;SDS011;21301;43.626;10.580;2023-02-01T00:16:29;29.88;;;14.85;;
35128;SDS011;21301;43.626;10.580;2023-02-01T00:18:57;36.15;;;18.48;;
35128;SDS011;21301;43.626;10.580;2023-02-01T00:21:25;28.77;;;14.27;;
35128;SDS011;21301;43.626;10.580;2023-02-01T00:23:51;36.08;;;18.23;;
35128;SDS011;21301;43.626;10.580;2023-02-01T00:26:18;16.35;;;9.27;;
35128;SDS011;21301;43.626;10.580;2023-02-01T00:28:47;18.00;;;10.18;;
35128;SDS011;21301;43.626;10.580;2023-02-01T00:31:13;21.52;;;9.40;;
35128;SDS011;21301;43.626;10.580;2023-02-01T00:33:40;15.27;;;7.50;;
35128;SDS011;21301;43.626;10.580;2023-02-01T00:36:06;18.65;;;9.95;;
35128;SDS011;21301;43.626;10.580;2023-02-01T00:38:34;18.08;;;9.23;;
35128;SDS011;21301;43.626;10.580;2023-02-01T00:41:02;15.45;;;8.27;;
35128;SDS011;21301;43.626;10.580;2023-02-01T00:43:33;19.17;;;8.40;;
35128;SDS011;21301;43.626;10.580;2023-02-01T00:45:59;15.48;;;7.38;;
35128;SDS011;21301;43.626;10.580;2023-02-01T00:48:25;16.35;;;7.88;;
35128;SDS011;21301;43.626;10.580;2023-02-01T00:50:51;24.33;;;11.13;;
35128;SDS011;21301;43.626;10.580;2023-02-01T00:53:18;18.83;;;9.70;;
35128;SDS011;21301;43.626;10.580;2023-02-01T00:55:47;15.13;;;7.63;;
35128;SDS011;21301;43.626;10.580;2023-02-01T00:58:13;18.25;;;9.68;;
35128;SDS011;21301;43.626;10.580;2023-02-01T01:00:39;17.15;;;8.77;;
35128;SDS011;21301;43.626;10.580;2023-02-01T01:03:05;22.50;;;9.00;;
35128;SDS011;21301;43.626;10.580;2023-02-01T01:05:49;19.48;;;9.13;;
35128;SDS011;21301;43.626;10.580;2023-02-01T01:08:15;26.60;;;9.70;;
35128;SDS011;21301;43.626;10.580;2023-02-01T01:10:42;15.32;;;6.72;;
35128;SDS011;21301;43.626;10.580;2023-02-01T01:13:08;12.18;;;6.03;;
35128;SDS011;21301;43.626;10.580;2023-02-01T01:17:04;13.45;;;6.18;;
35128;SDS011;21301;43.626;10.580;2023-02-01T01:19:30;10.57;;;5.88;;
35128;SDS011;21301;43.626;10.580;2023-02-01T01:21:56;14.95;;;7.60;;
35128;SDS011;21301;43.626;10.580;2023-02-01T01:24:22;11.68;;;6.70;;
35128;SDS011;21301;43.626;10.580;2023-02-01T01:26:47;12.30;;;6.65;;
35128;SDS011;21301;43.626;10.580;2023-02-01T01:29:13;13.02;;;6.93;;
35128;SDS011;21301;43.626;10.580;2023-02-01T01:31:39;16.13;;;9.07;;
35128;SDS011;21301;43.626;10.580;2023-02-01T01:34:05;23.05;;;10.45;;
35128;SDS011;21301;43.626;10.580;2023-02-01T01:36:31;21.92;;;13.15;;
35128;SDS011;21301;43.626;10.580;2023-02-01T01:38:56;28.17;;;13.57;;
35128;SDS011;21301;43.626;10.580;2023-02-01T01:41:24;25.10;;;13.55;;
35128;SDS011;21301;43.626;10.580;2023-02-01T01:44:03;21.02;;;12.43;;
35128;SDS011;21301;43.626;10.580;2023-02-01T01:54:17;17.80;;;9.63;;
35128;SDS011;21301;43.626;10.580;2023-02-01T01:56:46;17.42;;;9.35;;
35128;SDS011;21301;43.626;10.580;2023-02-01T01:59:16;24.38;;;12.05;;
35128;SDS011;21301;43.626;10.580;2023-02-01T02:01:43;25.65;;;14.98;;
35128;SDS011;21301;43.626;10.580;2023-02-01T02:04:09;23.73;;;14.88;;
35128;SDS011;21301;43.626;10.580;2023-02-01T02:09:07;20.38;;;11.90;;
35128;SDS011;21301;43.626;10.580;2023-02-01T02:11:33;17.63;;;10.88;;
35128;SDS011;21301;43.626;10.580;2023-02-01T02:13:58;19.92;;;11.68;;
35128;SDS011;21301;43.626;10.580;2023-02-01T02:21:52;22.85;;;12.68;;
35128;SDS011;21301;43.626;10.580;2023-02-01T02:24:46;17.17;;;9.05;;
35128;SDS011;21301;43.626;10.580;2023-02-01T02:36:10;21.75;;;11.75;;
35128;SDS011;21301;43.626;10.580;2023-02-01T02:39:02;22.73;;;11.27;;
35128;SDS011;21301;43.626;10.580;2023-02-01T02:50:35;18.92;;;12.25;;
35128;SDS011;21301;43.626;10.580;2023-02-01T02:56:18;32.17;;;14.70;;
35128;SDS011;21301;43.626;10.580;2023-02-01T02:59:07;30.77;;;16.42;;
35128;SDS011;21301;43.626;10.580;2023-02-01T03:01:53;30.98;;;16.38;;
35128;SDS011;21301;43.626;10.580;2023-02-01T03:04:38;24.65;;;15.15;;
35128;SDS011;21301;43.626;10.580;2023-02-01T03:10:04;26.83;;;16.05;;
35128;SDS011;21301;43.626;10.580;2023-02-01T03:12:40;29.55;;;17.25;;
35128;SDS011;21301;43.626;10.580;2023-02-01T03:15:21;30.73;;;16.05;;
35128;SDS011;21301;43.626;10.580;2023-02-01T03:17:52;24.75;;;15.55;;
35128;SDS011;21301;43.626;10.580;2023-02-01T03:20:20;26.50;;;14.55;;
35128;SDS011;21301;43.626;10.580;2023-02-01T03:22:48;23.42;;;13.98;;
35128;SDS011;21301;43.626;10.580;2023-02-01T03:25:21;20.83;;;13.63;;
35128;SDS011;21301;43.626;10.580;2023-02-01T03:27:54;23.50;;;15.73;;
35128;SDS011;21301;43.626;10.580;2023-02-01T03:32:58;29.35;;;14.60;;
35128;SDS011;21301;43.626;10.580;2023-02-01T03:35:50;22.90;;;14.32;;
35128;SDS011;21301;43.626;10.580;2023-02-01T03:41:37;31.85;;;14.13;;
35128;SDS011;21301;43.626;10.580;2023-02-01T03:44:13;23.50;;;14.25;;
35128;SDS011;21301;43.626;10.580;2023-02-01T03:47:23;21.10;;;13.07;;
35128;SDS011;21301;43.626;10.580;2023-02-01T03:50:00;23.10;;;12.88;;
35128;SDS011;21301;43.626;10.580;2023-02-01T03:52:32;24.55;;;13.07;;
35128;SDS011;21301;43.626;10.580;2023-02-01T03:55:05;20.58;;;12.57;;
35128;SDS011;21301;43.626;10.580;2023-02-01T03:57:33;23.45;;;12.82;;
35128;SDS011;21301;43.626;10.580;2023-02-01T04:00:05;21.02;;;13.02;;
35128;SDS011;21301;43.626;10.580;2023-02-01T04:02:39;22.80;;;13.48;;
35128;SDS011;21301;43.626;10.580;2023-02-01T04:05:05;20.15;;;13.50;;
35128;SDS011;21301;43.626;10.580;2023-02-01T04:07:32;23.40;;;13.23;;
35128;SDS011;21301;43.626;10.580;2023-02-01T04:09:57;27.17;;;13.15;;
35128;SDS011;21301;43.626;10.580;2023-02-01T04:12:23;24.55;;;13.30;;
35128;SDS011;21301;43.626;10.580;2023-02-01T04:14:49;25.65;;;12.63;;
35128;SDS011;21301;43.626;10.580;2023-02-01T04:17:15;20.67;;;11.70;;
35128;SDS011;21301;43.626;10.580;2023-02-01T04:19:41;33.38;;;11.98;;
35128;SDS011;21301;43.626;10.580;2023-02-01T04:22:06;20.35;;;11.93;;
35128;SDS011;21301;43.626;10.580;2023-02-01T04:24:33;21.48;;;12.55;;
35128;SDS011;21301;43.626;10.580;2023-02-01T04:26:58;21.75;;;11.60;;
35128;SDS011;21301;43.626;10.580;2023-02-01T04:29:24;21.90;;;12.20;;
35128;SDS011;21301;43.626;10.580;2023-02-01T04:31:50;23.90;;;13.07;;
35128;SDS011;21301;43.626;10.580;2023-02-01T04:34:16;18.77;;;11.55;;
35128;SDS011;21301;43.626;10.580;2023-02-01T04:36:41;25.35;;;12.18;;
35128;SDS011;21301;43.626;10.580;2023-02-01T04:39:08;22.48;;;11.98;;
35128;SDS011;21301;43.626;10.580;2023-02-01T04:41:35;20.77;;;11.20;;
35128;SDS011;21301;43.626;10.580;2023-02-01T04:44:01;24.75;;;12.07;;
35128;SDS011;21301;43.626;10.580;2023-02-01T04:46:27;18.60;;;11.15;;
35128;SDS011;21301;43.626;10.580;2023-02-01T04:48:52;24.52;;;10.50;;
35128;SDS011;21301;43.626;10.580;2023-02-01T04:51:18;19.98;;;11.02;;
35128;SDS011;21301;43.626;10.580;2023-02-01T04:53:44;18.52;;;10.93;;
35128;SDS011;21301;43.626;10.580;2023-02-01T04:56:10;25.17;;;11.45;;
35128;SDS011;21301;43.626;10.580;2023-02-01T04:58:36;19.38;;;11.57;;
35128;SDS011;21301;43.626;10.580;2023-02-01T05:01:02;19.13;;;10.18;;
35128;SDS011;21301;43.626;10.580;2023-02-01T05:03:30;21.45;;;10.90;;
35128;SDS011;21301;43.626;10.580;2023-02-01T05:05:56;21.30;;;11.57;;
35128;SDS011;21301;43.626;10.580;2023-02-01T05:08:22;24.15;;;10.75;;
35128;SDS011;21301;43.626;10.580;2023-02-01T05:10:50;21.20;;;10.52;;
35128;SDS011;21301;43.626;10.580;2023-02-01T05:13:16;20.55;;;10.65;;
35128;SDS011;21301;43.626;10.580;2023-02-01T05:16:00;21.10;;;12.55;;
35128;SDS011;21301;43.626;10.580;2023-02-01T05:18:26;23.35;;;12.23;;
35128;SDS011;21301;43.626;10.580;2023-02-01T05:20:52;20.33;;;10.88;;
35128;SDS011;21301;43.626;10.580;2023-02-01T05:23:18;19.45;;;10.93;;
35128;SDS011;21301;43.626;10.580;2023-02-01T05:25:43;21.63;;;11.27;;
35128;SDS011;21301;43.626;10.580;2023-02-01T05:28:09;20.05;;;10.90;;
35128;SDS011;21301;43.626;10.580;2023-02-01T05:30:35;17.60;;;10.25;;
35128;SDS011;21301;43.626;10.580;2023-02-01T05:33:01;18.63;;;10.57;;
35128;SDS011;21301;43.626;10.580;2023-02-01T05:35:28;24.85;;;11.45;;
35128;SDS011;21301;43.626;10.580;2023-02-01T05:37:54;22.70;;;11.65;;
35128;SDS011;21301;43.626;10.580;2023-02-01T05:40:20;18.55;;;11.52;;
35128;SDS011;21301;43.626;10.580;2023-02-01T05:42:45;30.58;;;11.75;;
35128;SDS011;21301;43.626;10.580;2023-02-01T05:45:11;23.90;;;14.73;;
35128;SDS011;21301;43.626;10.580;2023-02-01T05:47:37;23.63;;;13.30;;
35128;SDS011;21301;43.626;10.580;2023-02-01T05:50:03;22.85;;;11.73;;
35128;SDS011;21301;43.626;10.580;2023-02-01T05:52:30;18.98;;;11.70;;
35128;SDS011;21301;43.626;10.580;2023-02-01T05:54:56;23.75;;;12.35;;
35128;SDS011;21301;43.626;10.580;2023-02-01T05:57:22;17.63;;;10.98;;
35128;SDS011;21301;43.626;10.580;2023-02-01T05:59:48;19.92;;;10.75;;
35128;SDS011;21301;43.626;10.580;2023-02-01T06:02:17;21.38;;;11.70;;
35128;SDS011;21301;43.626;10.580;2023-02-01T06:04:43;23.95;;;12.70;;
35128;SDS011;21301;43.626;10.580;2023-02-01T06:07:09;21.45;;;12.48;;
35128;SDS011;21301;43.626;10.580;2023-02-01T06:09:35;19.23;;;10.90;;
35128;SDS011;21301;43.626;10.580;2023-02-01T06:12:02;26.55;;;11.55;;
35128;SDS011;21301;43.626;10.580;2023-02-01T06:14:28;21.17;;;11.68;;
35128;SDS011;21301;43.626;10.580;2023-02-01T06:16:55;18.75;;;10.48;;
35128;SDS011;21301;43.626;10.580;2023-02-01T06:19:21;19.08;;;10.80;;
35128;SDS011;21301;43.626;10.580;2023-02-01T06:21:48;16.92;;;10.68;;
35128;SDS011;21301;43.626;10.580;2023-02-01T06:24:14;19.23;;;10.52;;
35128;SDS011;21301;43.626;10.580;2023-02-01T06:26:40;26.73;;;11.05;;
35128;SDS011;21301;43.626;10.580;2023-02-01T06:29:06;19.25;;;12.30;;
35128;SDS011;21301;43.626;10.580;2023-02-01T06:31:33;25.38;;;11.60;;
35128;SDS011;21301;43.626;10.580;2023-02-01T06:33:58;22.67;;;12.30;;
35128;SDS011;21301;43.626;10.580;2023-02-01T06:36:24;24.88;;;10.55;;
35128;SDS011;21301;43.626;10.580;2023-02-01T06:38:50;27.38;;;12.82;;
35128;SDS011;21301;43.626;10.580;2023-02-01T06:41:16;19.20;;;11.27;;
35128;SDS011;21301;43.626;10.580;2023-02-01T06:43:42;19.77;;;10.80;;
35128;SDS011;21301;43.626;10.580;2023-02-01T06:46:10;22.35;;;11.52;;
35128;SDS011;21301;43.626;10.580;2023-02-01T06:48:37;20.00;;;12.07;;
35128;SDS011;21301;43.626;10.580;2023-02-01T06:51:03;20.58;;;11.07;;
35128;SDS011;21301;43.626;10.580;2023-02-01T06:53:29;19.20;;;11.15;;
35128;SDS011;21301;43.626;10.580;2023-02-01T06:55:59;35.38;;;18.10;;
35128;SDS011;21301;43.626;10.580;2023-02-01T06:58:28;33.53;;;16.45;;
35128;SDS011;21301;43.626;10.580;2023-02-01T07:00:58;37.38;;;17.98;;
35128;SDS011;21301;43.626;10.580;2023-02-01T07:03:29;34.83;;;17.42;;
35128;SDS011;21301;43.626;10.580;2023-02-01T07:05:56;39.10;;;19.33;;
35128;SDS011;21301;43.626;10.580;2023-02-01T07:08:29;40.42;;;17.58;;
35128;SDS011;21301;43.626;10.580;2023-02-01T07:10:56;24.50;;;15.10;;
35128;SDS011;21301;43.626;10.580;2023-02-01T07:13:22;23.35;;;15.52;;
35128;SDS011;21301;43.626;10.580;2023-02-01T07:15:48;21.83;;;11.40;;
35128;SDS011;21301;43.626;10.580;2023-02-01T07:18:14;21.30;;;12.43;;
35128;SDS011;21301;43.626;10.580;2023-02-01T07:20:40;20.27;;;11.30;;
35128;SDS011;21301;43.626;10.580;2023-02-01T07:23:08;19.02;;;12.73;;
35128;SDS011;21301;43.626;10.580;2023-02-01T07:25:35;23.92;;;13.85;;
35128;SDS011;21301;43.626;10.580;2023-02-01T07:28:01;28.27;;;13.23;;
35128;SDS011;21301;43.626;10.580;2023-02-01T07:30:27;27.05;;;13.05;;
35128;SDS011;21301;43.626;10.580;2023-02-01T07:32:53;21.60;;;12.73;;
35128;SDS011;21301;43.626;10.580;2023-02-01T07:35:19;21.92;;;13.57;;
35128;SDS011;21301;43.626;10.580;2023-02-01T07:37:45;22.73;;;14.10;;
35128;SDS011;21301;43.626;10.580;2023-02-01T07:40:11;22.02;;;12.75;;
35128;SDS011;21301;43.626;10.580;2023-02-01T07:42:37;22.67;;;12.15;;
35128;SDS011;21301;43.626;10.580;2023-02-01T07:45:03;18.65;;;12.00;;
35128;SDS011;21301;43.626;10.580;2023-02-01T07:47:29;21.38;;;12.48;;
35128;SDS011;21301;43.626;10.580;2023-02-01T07:49:54;23.95;;;13.68;;
35128;SDS011;21301;43.626;10.580;2023-02-01T07:52:20;21.50;;;13.90;;
35128;SDS011;21301;43.626;10.580;2023-02-01T07:54:46;18.05;;;12.20;;
35128;SDS011;21301;43.626;10.580;2023-02-01T07:57:12;25.20;;;13.80;;
35128;SDS011;21301;43.626;10.580;2023-02-01T07:59:38;23.48;;;12.98;;
35128;SDS011;21301;43.626;10.580;2023-02-01T08:02:24;29.38;;;14.20;;
35128;SDS011;21301;43.626;10.580;2023-02-01T08:04:50;25.80;;;13.65;;
35128;SDS011;21301;43.626;10.580;2023-02-01T08:07:15;29.60;;;14.30;;
35128;SDS011;21301;43.626;10.580;2023-02-01T08:09:41;23.27;;;14.55;;
35128;SDS011;21301;43.626;10.580;2023-02-01T08:12:07;28.20;;;13.90;;
35128;SDS011;21301;43.626;10.580;2023-02-01T08:14:33;26.33;;;13.70;;
35128;SDS011;21301;43.626;10.580;2023-02-01T08:16:58;31.30;;;14.25;;
35128;SDS011;21301;43.626;10.580;2023-02-01T08:19:24;24.92;;;16.48;;
35128;SDS011;21301;43.626;10.580;2023-02-01T08:21:50;28.55;;;16.23;;
35128;SDS011;21301;43.626;10.580;2023-02-01T08:24:16;29.55;;;16.10;;
35128;SDS011;21301;43.626;10.580;2023-02-01T08:26:42;25.92;;;13.38;;
35128;SDS011;21301;43.626;10.580;2023-02-01T08:29:08;25.40;;;15.30;;
35128;SDS011;21301;43.626;10.580;2023-02-01T08:31:37;28.40;;;17.25;;
35128;SDS011;21301;43.626;10.580;2023-02-01T08:34:05;29.38;;;15.88;;
35128;SDS011;21301;43.626;10.580;2023-02-01T08:36:33;29.38;;;16.30;;
35128;SDS011;21301;43.626;10.580;2023-02-01T08:38:59;32.53;;;17.15;;
35128;SDS011;21301;43.626;10.580;2023-02-01T08:41:27;28.40;;;15.95;;
35128;SDS011;21301;43.626;10.580;2023-02-01T08:43:55;27.30;;;15.00;;
35128;SDS011;21301;43.626;10.580;2023-02-01T08:46:22;24.67;;;14.77;;
35128;SDS011;21301;43.626;10.580;2023-02-01T08:48:49;24.98;;;15.30;;
35128;SDS011;21301;43.626;10.580;2023-02-01T08:51:16;23.77;;;14.38;;
35128;SDS011;21301;43.626;10.580;2023-02-01T08:53:44;27.00;;;14.82;;
35128;SDS011;21301;43.626;10.580;2023-02-01T08:56:10;27.75;;;15.13;;
35128;SDS011;21301;43.626;10.580;2023-02-01T08:58:38;38.40;;;15.75;;
35128;SDS011;21301;43.626;10.580;2023-02-01T09:01:04;29.15;;;17.75;;
35128;SDS011;21301;43.626;10.580;2023-02-01T09:03:32;28.48;;;17.45;;
35128;SDS011;21301;43.626;10.580;2023-02-01T09:06:05;25.63;;;14.60;;
35128;SDS011;21301;43.626;10.580;2023-02-01T09:08:32;35.10;;;16.05;;
35128;SDS011;21301;43.626;10.580;2023-02-01T09:10:59;30.40;;;16.98;;
35128;SDS011;21301;43.626;10.580;2023-02-01T09:13:30;32.67;;;18.65;;
35128;SDS011;21301;43.626;10.580;2023-02-01T09:15:56;29.60;;;18.58;;
35128;SDS011;21301;43.626;10.580;2023-02-01T09:18:22;34.92;;;19.55;;
35128;SDS011;21301;43.626;10.580;2023-02-01T09:20:48;31.50;;;19.90;;
35128;SDS011;21301;43.626;10.580;2023-02-01T09:23:14;36.92;;;21.25;;
35128;SDS011;21301;43.626;10.580;2023-02-01T09:25:39;36.30;;;18.55;;
35128;SDS011;21301;43.626;10.580;2023-02-01T09:28:05;33.38;;;19.20;;
35128;SDS011;21301;43.626;10.580;2023-02-01T09:30:32;35.05;;;19.73;;
35128;SDS011;21301;43.626;10.580;2023-02-01T09:32:58;27.48;;;15.07;;
35128;SDS011;21301;43.626;10.580;2023-02-01T09:35:24;26.77;;;16.45;;
35128;SDS011;21301;43.626;10.580;2023-02-01T09:37:52;28.50;;;16.95;;
35128;SDS011;21301;43.626;10.580;2023-02-01T09:40:18;23.05;;;15.77;;
35128;SDS011;21301;43.626;10.580;2023-02-01T09:48:18;21.92;;;12.10;;
35128;SDS011;21301;43.626;10.580;2023-02-01T09:50:54;27.25;;;14.02;;
35128;SDS011;21301;43.626;10.580;2023-02-01T09:53:24;23.08;;;13.77;;
35128;SDS011;21301;43.626;10.580;2023-02-01T09:56:05;30.88;;;14.48;;
35128;SDS011;21301;43.626;10.580;2023-02-01T09:58:42;31.45;;;16.27;;
35128;SDS011;21301;43.626;10.580;2023-02-01T10:01:22;23.05;;;13.30;;
35128;SDS011;21301;43.626;10.580;2023-02-01T10:03:51;23.17;;;13.70;;
35128;SDS011;21301;43.626;10.580;2023-02-01T10:09:25;27.88;;;15.82;;
35128;SDS011;21301;43.626;10.580;2023-02-01T10:25:56;28.13;;;16.15;;
35128;SDS011;21301;43.626;10.580;2023-02-01T10:28:34;24.70;;;16.30;;
35128;SDS011;21301;43.626;10.580;2023-02-01T10:31:03;22.63;;;14.70;;
35128;SDS011;21301;43.626;10.580;2023-02-01T10:33:32;27.65;;;16.30;;
35128;SDS011;21301;43.626;10.580;2023-02-01T10:36:08;26.95;;;14.70;;
35128;SDS011;21301;43.626;10.580;2023-02-01T10:38:39;28.75;;;16.70;;
35128;SDS011;21301;43.626;10.580;2023-02-01T10:41:21;33.60;;;18.98;;
35128;SDS011;21301;43.626;10.580;2023-02-01T10:43:57;29.15;;;19.05;;
35128;SDS011;21301;43.626;10.580;2023-02-01T10:46:25;39.22;;;20.88;;
35128;SDS011;21301;43.626;10.580;2023-02-01T10:48:52;28.85;;;17.70;;
35128;SDS011;21301;43.626;10.580;2023-02-01T10:51:22;31.92;;;19.25;;
35128;SDS011;21301;43.626;10.580;2023-02-01T10:53:55;32.92;;;18.20;;
35128;SDS011;21301;43.626;10.580;2023-02-01T10:56:27;30.75;;;16.38;;
35128;SDS011;21301;43.626;10.580;2023-02-01T10:59:03;29.75;;;17.13;;
35128;SDS011;21301;43.626;10.580;2023-02-01T11:01:34;31.25;;;17.40;;
35128;SDS011;21301;43.626;10.580;2023-02-01T11:04:03;30.85;;;18.02;;
35128;SDS011;21301;43.626;10.580;2023-02-01T11:06:34;30.40;;;17.15;;
35128;SDS011;21301;43.626;10.580;2023-02-01T11:11:33;58.35;;;30.85;;
35128;SDS011;21301;43.626;10.580;2023-02-01T11:19:19;38.00;;;23.35;;
35128;SDS011;21301;43.626;10.580;2023-02-01T11:21:49;28.90;;;17.90;;
35128;SDS011;21301;43.626;10.580;2023-02-01T11:26:49;41.05;;;15.93;;
35128;SDS011;21301;43.626;10.580;2023-02-01T11:29:18;27.20;;;15.32;;
35128;SDS011;21301;43.626;10.580;2023-02-01T11:31:49;34.80;;;16.05;;
35128;SDS011;21301;43.626;10.580;2023-02-01T11:34:17;23.92;;;15.35;;
35128;SDS011;21301;43.626;10.580;2023-02-01T11:36:46;28.17;;;15.68;;
35128;SDS011;21301;43.626;10.580;2023-02-01T11:41:57;25.58;;;13.60;;
35128;SDS011;21301;43.626;10.580;2023-02-01T11:44:43;24.50;;;13.60;;
35128;SDS011;21301;43.626;10.580;2023-02-01T11:49:54;31.05;;;14.15;;
35128;SDS011;21301;43.626;10.580;2023-02-01T11:52:41;24.63;;;14.85;;
35128;SDS011;21301;43.626;10.580;2023-02-01T12:25:26;22.25;;;11.13;;
35128;SDS011;21301;43.626;10.580;2023-02-01T12:38:55;20.42;;;11.02;;
35128;SDS011;21301;43.626;10.580;2023-02-01T12:49:48;20.90;;;10.68;;
35128;SDS011;21301;43.626;10.580;2023-02-01T12:57:43;24.10;;;11.88;;
35128;SDS011;21301;43.626;10.580;2023-02-01T13:00:22;17.38;;;10.43;;
35128;SDS011;21301;43.626;10.580;2023-02-01T13:03:17;25.48;;;10.43;;
35128;SDS011;21301;43.626;10.580;2023-02-01T13:06:13;17.35;;;8.90;;
35128;SDS011;21301;43.626;10.580;2023-02-01T13:08:48;16.95;;;8.25;;
35128;SDS011;21301;43.626;10.580;2023-02-01T13:16:48;19.80;;;8.60;;
35128;SDS011;21301;43.626;10.580;2023-02-01T13:19:19;19.42;;;9.18;;
35128;SDS011;21301;43.626;10.580;2023-02-01T13:22:06;15.02;;;7.55;;
35128;SDS011;21301;43.626;10.580;2023-02-01T13:27:16;9.55;;;4.63;;
35128;SDS011;21301;43.626;10.580;2023-02-01T13:29:48;13.05;;;4.45;;
35128;SDS011;21301;43.626;10.580;2023-02-01T13:32:35;14.95;;;4.57;;
35128;SDS011;21301;43.626;10.580;2023-02-01T13:35:25;10.32;;;4.00;;
35128;SDS011;21301;43.626;10.580;2023-02-01T13:38:53;12.30;;;4.03;;
35128;SDS011;21301;43.626;10.580;2023-02-01T13:44:12;7.95;;;3.80;;
35128;SDS011;21301;43.626;10.580;2023-02-01T13:46:43;16.83;;;6.43;;
35128;SDS011;21301;43.626;10.580;2023-02-01T13:49:22;8.82;;;3.60;;
35128;SDS011;21301;43.626;10.580;2023-02-01T13:51:51;11.00;;;3.40;;
35128;SDS011;21301;43.626;10.580;2023-02-01T13:57:00;7.32;;;3.22;;
35128;SDS011;21301;43.626;10.580;2023-02-01T14:05:03;14.13;;;2.85;;
35128;SDS011;21301;43.626;10.580;2023-02-01T14:07:33;6.60;;;2.53;;
35128;SDS011;21301;43.626;10.580;2023-02-01T14:10:31;8.55;;;2.63;;
35128;SDS011;21301;43.626;10.580;2023-02-01T14:15:30;9.13;;;2.60;;
35128;SDS011;21301;43.626;10.580;2023-02-01T14:17:56;5.97;;;2.42;;
35128;SDS011;21301;43.626;10.580;2023-02-01T14:20:41;7.97;;;2.38;;
35128;SDS011;21301;43.626;10.580;2023-02-01T14:23:14;10.60;;;3.45;;
35128;SDS011;21301;43.626;10.580;2023-02-01T14:25:43;9.15;;;3.13;;
35128;SDS011;21301;43.626;10.580;2023-02-01T14:28:11;8.43;;;3.08;;
35128;SDS011;21301;43.626;10.580;2023-02-01T14:30:47;11.65;;;3.10;;
35128;SDS011;21301;43.626;10.580;2023-02-01T14:33:18;7.00;;;2.33;;
35128;SDS011;21301;43.626;10.580;2023-02-01T14:38:26;6.30;;;2.25;;
35128;SDS011;21301;43.626;10.580;2023-02-01T14:41:09;6.40;;;2.53;;
35128;SDS011;21301;43.626;10.580;2023-02-01T14:49:30;6.57;;;2.33;;
35128;SDS011;21301;43.626;10.580;2023-02-01T14:51:58;6.88;;;2.40;;
35128;SDS011;21301;43.626;10.580;2023-02-01T14:54:25;9.63;;;2.78;;
35128;SDS011;21301;43.626;10.580;2023-02-01T14:56:52;9.00;;;2.53;;
35128;SDS011;21301;43.626;10.580;2023-02-01T14:59:20;7.90;;;2.67;;
35128;SDS011;21301;43.626;10.580;2023-02-01T15:01:50;9.80;;;2.83;;
35128;SDS011;21301;43.626;10.580;2023-02-01T15:04:20;8.70;;;3.10;;
35128;SDS011;21301;43.626;10.580;2023-02-01T15:06:51;7.32;;;2.80;;
35128;SDS011;21301;43.626;10.580;2023-02-01T15:09:20;11.13;;;3.63;;
35128;SDS011;21301;43.626;10.580;2023-02-01T15:14:44;10.38;;;3.83;;
35128;SDS011;21301;43.626;10.580;2023-02-01T15:17:22;9.00;;;3.42;;
35128;SDS011;21301;43.626;10.580;2023-02-01T15:20:03;7.32;;;2.85;;
35128;SDS011;21301;43.626;10.580;2023-02-01T15:22:30;7.07;;;3.17;;
35128;SDS011;21301;43.626;10.580;2023-02-01T15:24:57;8.50;;;4.07;;
35128;SDS011;21301;43.626;10.580;2023-02-01T15:27:25;10.75;;;3.45;;
35128;SDS011;21301;43.626;10.580;2023-02-01T15:29:52;9.80;;;3.58;;
35128;SDS011;21301;43.626;10.580;2023-02-01T15:32:28;7.07;;;2.47;;
35128;SDS011;21301;43.626;10.580;2023-02-01T15:34:56;8.32;;;3.30;;
35128;SDS011;21301;43.626;10.580;2023-02-01T15:37:22;9.57;;;3.08;;
35128;SDS011;21301;43.626;10.580;2023-02-01T15:42:52;9.80;;;3.08;;
35128;SDS011;21301;43.626;10.580;2023-02-01T15:45:21;9.38;;;3.17;;
35128;SDS011;21301;43.626;10.580;2023-02-01T15:47:50;10.80;;;3.72;;
35128;SDS011;21301;43.626;10.580;2023-02-01T15:50:18;9.15;;;3.75;;
35128;SDS011;21301;43.626;10.580;2023-02-01T15:52:45;10.73;;;3.72;;
35128;SDS011;21301;43.626;10.580;2023-02-01T15:55:20;8.88;;;3.10;;
35128;SDS011;21301;43.626;10.580;2023-02-01T15:57:52;8.07;;;3.40;;
35128;SDS011;21301;43.626;10.580;2023-02-01T16:00:22;10.48;;;3.42;;
35128;SDS011;21301;43.626;10.580;2023-02-01T16:02:57;8.50;;;2.78;;
35128;SDS011;21301;43.626;10.580;2023-02-01T16:05:37;8.93;;;3.05;;
35128;SDS011;21301;43.626;10.580;2023-02-01T16:10:31;12.57;;;3.53;;
35128;SDS011;21301;43.626;10.580;2023-02-01T16:13:03;8.75;;;3.10;;
35128;SDS011;21301;43.626;10.580;2023-02-01T16:15:28;13.07;;;3.65;;
35128;SDS011;21301;43.626;10.580;2023-02-01T16:17:55;8.63;;;2.92;;
35128;SDS011;21301;43.626;10.580;2023-02-01T16:20:21;24.60;;;4.57;;
35128;SDS011;21301;43.626;10.580;2023-02-01T16:22:46;21.88;;;4.47;;
35128;SDS011;21301;43.626;10.580;2023-02-01T16:25:12;31.90;;;4.75;;
35128;SDS011;21301;43.626;10.580;2023-02-01T16:27:38;27.42;;;5.90;;
35128;SDS011;21301;43.626;10.580;2023-02-01T16:30:04;15.90;;;4.93;;
35128;SDS011;21301;43.626;10.580;2023-02-01T16:32:30;11.25;;;4.07;;
35128;SDS011;21301;43.626;10.580;2023-02-01T16:34:56;25.67;;;5.85;;
35128;SDS011;21301;43.626;10.580;2023-02-01T16:37:23;15.65;;;5.97;;
35128;SDS011;21301;43.626;10.580;2023-02-01T16:39:50;11.52;;;4.55;;
35128;SDS011;21301;43.626;10.580;2023-02-01T16:42:16;15.25;;;6.93;;
35128;SDS011;21301;43.626;10.580;2023-02-01T16:44:42;30.55;;;9.60;;
35128;SDS011;21301;43.626;10.580;2023-02-01T16:47:12;9.48;;;5.65;;
35128;SDS011;21301;43.626;10.580;2023-02-01T16:49:41;10.75;;;5.60;;
35128;SDS011;21301;43.626;10.580;2023-02-01T16:52:18;13.20;;;6.22;;
35128;SDS011;21301;43.626;10.580;2023-02-01T16:54:47;12.30;;;5.93;;
35128;SDS011;21301;43.626;10.580;2023-02-01T16:57:14;13.30;;;6.80;;
35128;SDS011;21301;43.626;10.580;2023-02-01T16:59:41;15.80;;;7.78;;
35128;SDS011;21301;43.626;10.580;2023-02-01T17:02:13;11.70;;;5.90;;
35128;SDS011;21301;43.626;10.580;2023-02-01T17:04:41;12.65;;;6.90;;
35128;SDS011;21301;43.626;10.580;2023-02-01T17:07:14;12.27;;;6.40;;
35128;SDS011;21301;43.626;10.580;2023-02-01T17:09:41;18.58;;;7.32;;
35128;SDS011;21301;43.626;10.580;2023-02-01T17:12:21;13.75;;;7.07;;
35128;SDS011;21301;43.626;10.580;2023-02-01T17:14:49;13.50;;;6.95;;
35128;SDS011;21301;43.626;10.580;2023-02-01T17:17:16;15.05;;;7.75;;
35128;SDS011;21301;43.626;10.580;2023-02-01T17:19:51;20.58;;;9.60;;
35128;SDS011;21301;43.626;10.580;2023-02-01T17:22:18;24.58;;;12.05;;
35128;SDS011;21301;43.626;10.580;2023-02-01T17:24:45;18.42;;;10.15;;
35128;SDS011;21301;43.626;10.580;2023-02-01T17:27:11;14.45;;;7.60;;